createdAt,value
2017-12-03T00:00:55.370Z,48.28
2017-12-03T00:03:24.408Z,51.83
2017-12-03T00:05:51.840Z,52.53
2017-12-03T00:08:20.369Z,55.35
2017-12-03T00:10:47.817Z,52.80
2017-12-03T00:13:15.288Z,61.75
2017-12-03T00:15:42.750Z,59.45
2017-12-03T00:18:10.205Z,57.38
2017-12-03T00:20:41.008Z,61.25
2017-12-03T00:23:08.441Z,52.25
2017-12-03T00:25:35.961Z,58.30
2017-12-03T00:28:04.841Z,53.90
2017-12-03T00:30:32.309Z,49.08
2017-12-03T00:32:59.870Z,53.35
2017-12-03T00:35:27.334Z,55.38
2017-12-03T00:37:54.843Z,49.55
2017-12-03T00:40:25.165Z,51.65
2017-12-03T00:42:52.650Z,55.80
2017-12-03T00:45:20.106Z,53.40
2017-12-03T00:47:47.556Z,63.63
2017-12-03T00:50:16.049Z,51.85
2017-12-03T00:52:43.718Z,59.58
2017-12-03T00:55:11.180Z,52.65
2017-12-03T00:57:38.635Z,56.50
2017-12-03T01:00:06.109Z,57.65
2017-12-03T01:02:34.938Z,61.90
2017-12-03T01:05:02.391Z,66.12
2017-12-03T01:07:29.955Z,61.63
2017-12-03T01:09:57.417Z,57.50
2017-12-03T01:12:32.582Z,57.25
2017-12-03T01:15:00.035Z,70.78
2017-12-03T01:17:27.484Z,52.92
2017-12-03T01:19:54.951Z,54.15
2017-12-03T01:22:22.416Z,58.90
2017-12-03T01:24:49.882Z,57.83
2017-12-03T01:27:18.208Z,71.62
2017-12-03T01:29:45.700Z,61.20
2017-12-03T01:32:13.224Z,56.45
2017-12-03T01:34:40.665Z,62.50
2017-12-03T01:37:08.174Z,57.20
2017-12-03T01:39:35.697Z,58.87
2017-12-03T01:42:03.185Z,58.13
2017-12-03T01:44:30.816Z,58.38
2017-12-03T01:46:58.269Z,66.12
2017-12-03T01:49:25.726Z,57.28
2017-12-03T01:51:53.290Z,64.22
2017-12-03T01:54:20.729Z,58.55
2017-12-03T01:56:48.302Z,63.70
2017-12-03T01:59:18.589Z,60.72
2017-12-03T02:01:46.816Z,57.92
2017-12-03T02:04:14.361Z,61.10
2017-12-03T02:06:41.810Z,53.08
2017-12-03T02:09:09.260Z,53.20
2017-12-03T02:11:36.727Z,58.97
2017-12-03T02:14:04.178Z,56.55
2017-12-03T02:16:31.673Z,58.00
2017-12-03T02:18:59.124Z,57.58
2017-12-03T02:21:26.587Z,62.03
2017-12-03T02:23:54.113Z,57.10
2017-12-03T02:26:21.564Z,52.38
2017-12-03T02:28:49.070Z,51.67
2017-12-03T02:31:16.566Z,54.90
2017-12-03T02:33:44.083Z,55.50
2017-12-03T02:36:11.545Z,49.95
2017-12-03T02:38:39.077Z,55.00
2017-12-03T02:41:06.517Z,58.45
2017-12-03T02:43:33.977Z,53.25
2017-12-03T02:46:01.428Z,53.80
2017-12-03T02:48:28.891Z,54.30
2017-12-03T02:50:56.751Z,52.70
2017-12-03T02:53:24.622Z,47.40
2017-12-03T02:55:52.078Z,51.65
2017-12-03T02:58:19.532Z,51.63
2017-12-03T03:00:47.004Z,49.95
2017-12-03T03:03:14.467Z,46.25
2017-12-03T03:05:41.917Z,43.95
2017-12-03T03:08:09.378Z,42.25
2017-12-03T03:10:36.829Z,46.70
2017-12-03T03:13:04.293Z,46.00
2017-12-03T03:15:31.746Z,43.22
2017-12-03T03:17:59.209Z,40.67
2017-12-03T03:20:27.437Z,46.45
2017-12-03T03:22:54.914Z,47.60
2017-12-03T03:25:22.348Z,45.20
2017-12-03T03:27:49.861Z,45.65
2017-12-03T03:30:18.288Z,38.08
2017-12-03T03:32:45.760Z,47.78
2017-12-03T03:35:13.220Z,45.67
2017-12-03T03:37:40.681Z,43.25
2017-12-03T03:40:08.137Z,46.90
2017-12-03T03:42:35.597Z,41.28
2017-12-03T03:45:03.050Z,39.80
2017-12-03T03:47:30.506Z,45.00
2017-12-03T03:49:57.962Z,42.45
2017-12-03T03:52:25.425Z,41.40
2017-12-03T03:54:52.882Z,50.38
2017-12-03T03:57:20.334Z,46.30
2017-12-03T03:59:47.794Z,54.63
2017-12-03T04:02:15.248Z,55.50
2017-12-03T04:04:42.804Z,54.38
2017-12-03T04:07:10.265Z,47.88
2017-12-03T04:09:37.730Z,47.75
2017-12-03T04:12:05.204Z,47.25
2017-12-03T04:14:32.665Z,52.40
2017-12-03T04:17:00.126Z,54.33
2017-12-03T04:19:27.584Z,49.20
2017-12-03T04:21:56.172Z,47.28
2017-12-03T04:24:24.593Z,55.42
2017-12-03T04:26:53.909Z,50.95
2017-12-03T04:29:21.465Z,57.70
2017-12-03T04:31:48.905Z,52.92
2017-12-03T04:34:16.372Z,47.83
2017-12-03T04:36:43.829Z,50.08
2017-12-03T04:39:11.292Z,51.25
2017-12-03T04:41:38.749Z,53.92
2017-12-03T04:44:06.213Z,47.88
2017-12-03T04:46:33.661Z,53.45
2017-12-03T04:49:01.149Z,53.03
2017-12-03T04:51:28.607Z,50.28
2017-12-03T04:53:56.068Z,48.22
2017-12-03T04:56:23.618Z,45.40
2017-12-03T04:58:51.080Z,43.35
2017-12-03T05:01:18.529Z,51.22
2017-12-03T05:03:45.990Z,53.30
2017-12-03T05:06:13.443Z,49.15
2017-12-03T05:08:43.094Z,40.40
2017-12-03T05:11:11.626Z,45.45
2017-12-03T05:13:39.077Z,44.47
2017-12-03T05:16:07.674Z,45.40
2017-12-03T05:18:35.124Z,43.85
2017-12-03T05:21:02.585Z,56.47
2017-12-03T05:23:31.686Z,42.58
2017-12-03T05:25:59.250Z,49.35
2017-12-03T05:28:26.696Z,47.33
2017-12-03T05:30:54.156Z,51.80
2017-12-03T05:33:21.614Z,49.75
2017-12-03T05:35:49.073Z,51.95
2017-12-03T05:38:16.629Z,47.60
2017-12-03T05:40:44.089Z,54.88
2017-12-03T05:43:11.541Z,51.90
2017-12-03T05:45:39.001Z,51.35
2017-12-03T05:48:06.457Z,54.25
2017-12-03T05:50:33.921Z,54.20
2017-12-03T05:53:01.377Z,49.83
2017-12-03T05:55:30.146Z,54.95
2017-12-03T05:57:57.598Z,46.90
2017-12-03T06:00:26.100Z,47.33
2017-12-03T06:02:53.656Z,47.35
2017-12-03T06:05:21.121Z,51.58
2017-12-03T06:07:48.572Z,50.50
2017-12-03T06:10:17.115Z,47.83
2017-12-03T06:12:44.560Z,48.03
2017-12-03T06:15:12.033Z,48.67
2017-12-03T06:17:39.468Z,49.70
2017-12-03T06:20:06.947Z,47.05
2017-12-03T06:22:34.929Z,47.05
2017-12-03T06:25:02.380Z,56.22
2017-12-03T06:27:31.561Z,52.75
2017-12-03T06:29:59.734Z,51.25
2017-12-03T06:32:27.232Z,49.65
2017-12-03T06:34:55.680Z,48.45
2017-12-03T06:37:23.162Z,52.10
2017-12-03T06:39:51.434Z,53.22
2017-12-03T06:42:19.945Z,44.42
2017-12-03T06:44:49.343Z,55.63
2017-12-03T06:47:16.886Z,54.05
2017-12-03T06:49:44.677Z,54.83
2017-12-03T06:52:14.357Z,54.83
2017-12-03T06:54:41.809Z,57.42
2017-12-03T06:57:09.297Z,56.55
2017-12-03T06:59:37.520Z,48.47
2017-12-03T07:02:05.000Z,52.08
2017-12-03T07:04:33.585Z,55.28
2017-12-03T07:07:01.920Z,59.65
2017-12-03T07:09:29.368Z,61.70
2017-12-03T07:11:56.829Z,61.78
2017-12-03T07:14:24.280Z,45.20
2017-12-03T07:16:51.744Z,58.20
2017-12-03T07:19:19.196Z,54.47
2017-12-03T07:21:47.380Z,52.83
2017-12-03T07:24:20.597Z,61.20
2017-12-03T07:26:48.717Z,61.95
2017-12-03T07:29:18.576Z,62.65
2017-12-03T07:31:46.037Z,65.87
2017-12-03T07:34:13.494Z,62.95
2017-12-03T07:36:40.964Z,52.05
2017-12-03T07:39:08.418Z,59.72
2017-12-03T07:41:38.637Z,55.00
2017-12-03T07:44:06.092Z,59.85
2017-12-03T07:46:33.557Z,53.42
2017-12-03T07:49:04.465Z,54.47
2017-12-03T07:51:33.802Z,50.67
2017-12-03T07:54:01.277Z,50.00
2017-12-03T07:56:29.670Z,44.92
2017-12-03T07:58:58.822Z,51.28
2017-12-03T08:01:26.273Z,51.50
2017-12-03T08:03:53.738Z,51.63
2017-12-03T08:06:21.216Z,61.20
2017-12-03T08:08:53.918Z,56.22
2017-12-03T08:11:22.184Z,58.92
2017-12-03T08:13:50.405Z,54.63
2017-12-03T08:16:17.854Z,61.15
2017-12-03T08:18:45.310Z,53.72
2017-12-03T08:21:12.791Z,64.62
2017-12-03T08:23:40.262Z,53.53
2017-12-03T08:26:07.709Z,55.95
2017-12-03T08:28:35.169Z,59.50
2017-12-03T08:31:02.625Z,70.10
2017-12-03T08:33:30.182Z,60.33
2017-12-03T08:35:57.654Z,56.22
2017-12-03T08:38:25.114Z,53.33
2017-12-03T08:40:52.565Z,53.00
2017-12-03T08:43:20.013Z,57.72
2017-12-03T08:45:47.915Z,56.35
2017-12-03T08:48:16.145Z,58.22
2017-12-03T08:50:43.592Z,56.63
2017-12-03T08:53:11.054Z,56.72
2017-12-03T08:55:38.512Z,63.97
2017-12-03T08:58:05.993Z,56.60
2017-12-03T09:00:35.938Z,59.03
2017-12-03T09:03:04.232Z,73.60
2017-12-03T09:05:31.673Z,55.10
2017-12-03T09:08:00.718Z,50.78
2017-12-03T09:10:33.686Z,55.33
2017-12-03T09:13:01.180Z,45.67
2017-12-03T09:15:29.772Z,52.65
2017-12-03T09:17:57.297Z,71.68
2017-12-03T09:20:24.757Z,112.57
2017-12-03T09:22:52.214Z,54.33
2017-12-03T09:25:19.673Z,51.47
2017-12-03T09:27:47.122Z,61.00
2017-12-03T09:30:14.592Z,54.90
2017-12-03T09:32:42.137Z,56.70
2017-12-03T09:35:09.592Z,50.40
2017-12-03T09:37:37.041Z,54.45
2017-12-03T09:40:04.500Z,56.30
2017-12-03T09:42:31.950Z,58.53
2017-12-03T09:44:59.413Z,68.55
2017-12-03T09:47:26.888Z,62.85
2017-12-03T09:49:54.340Z,59.35
2017-12-03T09:52:21.794Z,57.83
2017-12-03T09:54:49.250Z,57.42
2017-12-03T09:57:16.702Z,59.15
2017-12-03T09:59:44.156Z,48.13
2017-12-03T10:02:11.609Z,43.60
2017-12-03T10:04:39.173Z,45.40
2017-12-03T10:07:06.624Z,34.70
2017-12-03T10:09:34.197Z,27.62
2017-12-03T10:12:01.647Z,26.30
2017-12-03T10:14:29.205Z,26.95
2017-12-03T10:16:56.665Z,19.83
2017-12-03T10:19:24.117Z,21.67
2017-12-03T10:21:51.569Z,19.40
2017-12-03T10:24:19.023Z,20.62
2017-12-03T10:26:46.481Z,22.80
2017-12-03T10:29:13.970Z,20.88
2017-12-03T10:31:41.388Z,25.55
2017-12-03T10:34:08.838Z,23.45
2017-12-03T10:36:36.289Z,23.00
2017-12-03T10:39:03.744Z,25.42
2017-12-03T10:41:31.200Z,18.50
2017-12-03T10:43:58.657Z,21.80
2017-12-03T10:46:33.003Z,39.55
2017-12-03T10:49:00.561Z,21.42
2017-12-03T10:51:28.027Z,23.33
2017-12-03T10:53:55.756Z,26.08
2017-12-03T10:56:23.214Z,18.00
2017-12-03T10:58:50.672Z,23.17
2017-12-03T11:01:18.161Z,20.35
2017-12-03T11:03:45.621Z,25.58
2017-12-03T11:06:13.085Z,20.67
2017-12-03T11:08:40.532Z,17.42
2017-12-03T11:11:07.995Z,18.77
2017-12-03T11:13:35.444Z,14.50
2017-12-03T11:16:02.993Z,32.70
2017-12-03T11:18:30.445Z,23.50
2017-12-03T11:20:57.941Z,28.23
2017-12-03T11:23:25.352Z,29.85
2017-12-03T11:25:52.806Z,26.60
2017-12-03T11:28:20.258Z,26.70
2017-12-03T11:30:47.725Z,25.08
2017-12-03T11:33:15.887Z,25.35
2017-12-03T11:35:43.465Z,22.55
2017-12-03T11:38:10.918Z,24.05
2017-12-03T11:40:38.369Z,24.58
2017-12-03T11:43:05.937Z,26.52
2017-12-03T11:45:33.384Z,20.50
2017-12-03T11:48:03.411Z,21.48
2017-12-03T11:50:30.973Z,19.92
2017-12-03T11:52:58.437Z,20.10
2017-12-03T11:55:26.854Z,20.52
2017-12-03T11:57:54.363Z,19.20
2017-12-03T12:00:21.805Z,22.33
2017-12-03T12:02:49.257Z,21.87
2017-12-03T12:05:16.738Z,18.20
2017-12-03T12:07:44.201Z,24.50
2017-12-03T12:10:11.654Z,16.80
2017-12-03T12:12:39.119Z,18.40
2017-12-03T12:15:06.566Z,20.65
2017-12-03T12:17:34.022Z,23.00
2017-12-03T12:20:01.468Z,24.23
2017-12-03T12:22:28.932Z,24.40
2017-12-03T12:24:56.484Z,26.55
2017-12-03T12:27:23.942Z,26.02
2017-12-03T12:29:51.401Z,24.65
2017-12-03T12:32:18.863Z,23.65
2017-12-03T12:34:46.309Z,27.83
2017-12-03T12:37:13.769Z,24.98
2017-12-03T12:39:41.209Z,26.20
2017-12-03T12:42:08.669Z,24.10
2017-12-03T12:44:36.124Z,23.00
2017-12-03T12:47:03.572Z,22.67
2017-12-03T12:49:31.029Z,20.70
2017-12-03T12:51:58.468Z,20.35
2017-12-03T12:54:28.668Z,21.00
2017-12-03T12:56:56.086Z,22.20
2017-12-03T12:59:24.695Z,23.90
2017-12-03T13:01:52.125Z,24.80
2017-12-03T13:04:19.594Z,23.08
2017-12-03T13:06:47.146Z,26.85
2017-12-03T13:09:14.601Z,24.27
2017-12-03T13:11:42.041Z,24.35
2017-12-03T13:14:09.502Z,26.12
2017-12-03T13:16:36.966Z,25.50
2017-12-03T13:19:04.426Z,23.73
2017-12-03T13:21:31.985Z,37.28
2017-12-03T13:23:59.436Z,31.67
2017-12-03T13:26:26.886Z,31.95
2017-12-03T13:28:54.337Z,30.83
2017-12-03T13:31:21.780Z,34.38
2017-12-03T13:33:49.878Z,33.40
2017-12-03T13:36:17.330Z,29.55
2017-12-03T13:38:44.780Z,36.40
2017-12-03T13:41:12.226Z,32.58
2017-12-03T13:43:39.690Z,30.80
2017-12-03T13:46:07.146Z,30.42
2017-12-03T13:48:35.801Z,36.20
2017-12-03T13:51:06.218Z,32.13
2017-12-03T13:53:35.520Z,32.58
2017-12-03T13:56:04.721Z,35.35
2017-12-03T13:58:34.708Z,41.08
2017-12-03T14:01:03.658Z,38.05
2017-12-03T14:03:31.102Z,36.05
2017-12-03T14:05:58.589Z,36.08
2017-12-03T14:08:26.047Z,41.17
2017-12-03T14:10:53.522Z,44.97
2017-12-03T14:13:21.940Z,37.15
2017-12-03T14:15:49.397Z,55.60
2017-12-03T14:18:17.824Z,46.20
2017-12-03T14:20:45.277Z,46.83
2017-12-03T14:23:12.729Z,37.72
2017-12-03T14:25:40.177Z,38.75
2017-12-03T14:28:07.633Z,45.20
2017-12-03T14:30:35.117Z,38.13
2017-12-03T14:33:02.568Z,47.90
2017-12-03T14:35:30.027Z,43.50
2017-12-03T14:37:57.477Z,60.90
2017-12-03T14:40:24.934Z,50.42
2017-12-03T14:42:52.389Z,41.80
2017-12-03T14:45:19.849Z,44.17
2017-12-03T14:47:47.304Z,49.80
2017-12-03T14:50:14.764Z,48.95
2017-12-03T14:52:42.214Z,46.08
2017-12-03T14:55:09.682Z,51.78
2017-12-03T14:57:37.133Z,59.38
2017-12-03T15:00:04.609Z,61.63
2017-12-03T15:02:32.062Z,52.25
2017-12-03T15:04:59.524Z,45.15
2017-12-03T15:07:26.974Z,48.92
2017-12-03T15:09:54.425Z,47.38
2017-12-03T15:12:21.878Z,43.95
2017-12-03T15:14:49.346Z,54.15
2017-12-03T15:17:16.794Z,55.60
2017-12-03T15:19:45.769Z,53.38
2017-12-03T15:22:13.328Z,50.65
2017-12-03T15:24:40.786Z,47.40
2017-12-03T15:27:08.350Z,53.67
2017-12-03T15:29:35.801Z,48.17
2017-12-03T15:32:03.369Z,49.63
2017-12-03T15:34:30.826Z,50.65
2017-12-03T15:36:58.289Z,52.25
2017-12-03T15:39:25.741Z,51.30
2017-12-03T15:41:53.293Z,53.28
2017-12-03T15:44:20.740Z,57.38
2017-12-03T15:46:48.208Z,57.90
2017-12-03T15:49:15.653Z,56.83
2017-12-03T15:51:43.114Z,62.17
2017-12-03T15:54:10.564Z,59.08
2017-12-03T15:56:38.063Z,45.05
2017-12-03T15:59:05.510Z,86.15
2017-12-03T16:01:32.970Z,56.55
2017-12-03T16:04:00.421Z,49.92
2017-12-03T16:06:27.877Z,43.63
2017-12-03T16:08:55.417Z,49.30
2017-12-03T16:11:22.870Z,45.55
2017-12-03T16:13:50.324Z,47.62
2017-12-03T16:16:17.784Z,53.87
2017-12-03T16:18:45.239Z,60.80
2017-12-03T16:21:12.801Z,59.00
2017-12-03T16:23:40.258Z,65.03
2017-12-03T16:26:07.720Z,66.12
2017-12-03T16:28:35.170Z,70.30
2017-12-03T16:31:02.633Z,51.10
2017-12-03T16:33:30.080Z,53.50
2017-12-03T16:35:57.533Z,49.40
2017-12-03T16:38:25.088Z,49.92
2017-12-03T16:40:52.544Z,52.08
2017-12-03T16:43:20.005Z,55.42
2017-12-03T16:45:47.457Z,53.95
2017-12-03T16:48:14.917Z,50.65
2017-12-03T16:50:42.407Z,50.90
2017-12-03T16:53:09.841Z,51.90
2017-12-03T16:55:37.296Z,48.55
2017-12-03T16:58:04.752Z,53.17
2017-12-03T17:00:32.207Z,61.13
2017-12-03T17:02:59.668Z,58.78
2017-12-03T17:05:27.126Z,59.90
2017-12-03T17:07:54.681Z,57.08
2017-12-03T17:10:22.129Z,66.25
2017-12-03T17:12:49.589Z,61.53
2017-12-03T17:15:17.045Z,56.40
2017-12-03T17:17:44.504Z,56.37
2017-12-03T17:20:11.966Z,55.53
2017-12-03T17:22:39.420Z,46.28
2017-12-03T17:25:06.892Z,53.87
2017-12-03T17:27:34.351Z,55.80
2017-12-03T17:30:03.116Z,50.33
2017-12-03T17:32:33.035Z,51.75
2017-12-03T17:35:01.708Z,56.42
2017-12-03T17:37:29.282Z,52.58
2017-12-03T17:39:56.842Z,49.70
2017-12-03T17:42:24.317Z,52.75
2017-12-03T17:44:51.769Z,48.78
2017-12-03T17:47:19.235Z,48.05
2017-12-03T17:49:46.683Z,49.55
2017-12-03T17:52:14.233Z,53.28
2017-12-03T17:54:41.695Z,55.42
2017-12-03T17:57:09.154Z,46.85
2017-12-03T17:59:36.620Z,47.92
2017-12-03T18:02:04.073Z,44.13
2017-12-03T18:04:31.532Z,55.30
2017-12-03T18:06:58.982Z,54.97
2017-12-03T18:09:26.441Z,52.40
2017-12-03T18:11:53.898Z,54.83
2017-12-03T18:14:21.350Z,49.42
2017-12-03T18:16:49.569Z,47.95
2017-12-03T18:19:17.034Z,54.20
2017-12-03T18:21:44.487Z,54.17
2017-12-03T18:24:11.953Z,54.67
2017-12-03T18:26:39.441Z,49.00
2017-12-03T18:29:06.905Z,49.80
2017-12-03T18:31:34.453Z,54.03
2017-12-03T18:34:01.917Z,53.05
2017-12-03T18:36:29.411Z,53.35
2017-12-03T18:38:57.634Z,53.70
2017-12-03T18:41:25.082Z,44.80
2017-12-03T18:43:52.542Z,52.45
2017-12-03T18:46:19.998Z,51.63
2017-12-03T18:48:47.461Z,51.58
2017-12-03T18:51:14.914Z,45.25
2017-12-03T18:53:42.383Z,49.03
2017-12-03T18:56:09.825Z,51.10
2017-12-03T18:58:37.290Z,49.00
2017-12-03T19:01:04.736Z,47.10
2017-12-03T19:03:32.200Z,53.00
2017-12-03T19:05:59.765Z,47.28
2017-12-03T19:08:27.215Z,44.10
2017-12-03T19:10:54.681Z,41.40
2017-12-03T19:13:22.137Z,45.15
2017-12-03T19:15:49.599Z,42.65
2017-12-03T19:18:17.050Z,44.47
2017-12-03T19:20:44.521Z,41.78
2017-12-03T19:23:12.064Z,47.72
2017-12-03T19:25:39.624Z,42.65
2017-12-03T19:28:07.178Z,41.13
2017-12-03T19:30:34.641Z,45.45
2017-12-03T19:33:02.097Z,49.38
2017-12-03T19:35:29.653Z,48.30
2017-12-03T19:37:57.227Z,49.05
2017-12-03T19:40:24.823Z,40.05
2017-12-03T19:42:53.021Z,38.10
2017-12-03T19:45:20.481Z,44.13
2017-12-03T19:47:47.930Z,38.25
2017-12-03T19:50:15.412Z,46.37
2017-12-03T19:52:42.860Z,43.58
2017-12-03T19:55:10.314Z,43.72
2017-12-03T19:57:37.766Z,47.33
2017-12-03T20:00:05.230Z,56.63
2017-12-03T20:02:32.681Z,57.85
2017-12-03T20:05:00.141Z,51.88
2017-12-03T20:07:27.651Z,59.92
2017-12-03T20:09:55.152Z,58.47
2017-12-03T20:12:22.631Z,54.78
2017-12-03T20:14:50.089Z,58.60
2017-12-03T20:17:17.553Z,59.83
2017-12-03T20:19:45.005Z,62.53
2017-12-03T20:22:12.511Z,66.62
2017-12-03T20:24:40.787Z,60.78
2017-12-03T20:27:08.290Z,62.40
2017-12-03T20:29:35.741Z,59.88
2017-12-03T20:32:03.204Z,53.78
2017-12-03T20:34:30.660Z,62.15
2017-12-03T20:36:58.117Z,62.00
2017-12-03T20:39:25.578Z,68.65
2017-12-03T20:41:53.042Z,62.78
2017-12-03T20:44:21.259Z,50.88
2017-12-03T20:46:48.720Z,56.60
2017-12-03T20:49:16.165Z,54.47
2017-12-03T20:51:43.678Z,51.63
2017-12-03T20:54:11.133Z,48.22
2017-12-03T20:56:38.596Z,48.50
2017-12-03T20:59:06.144Z,43.78
2017-12-03T21:01:33.605Z,47.33
2017-12-03T21:04:01.056Z,40.83
2017-12-03T21:06:28.616Z,37.28
2017-12-03T21:08:56.177Z,32.78
2017-12-03T21:11:23.633Z,26.75
2017-12-03T21:13:51.088Z,25.08
2017-12-03T21:16:18.541Z,24.83
2017-12-03T21:18:45.998Z,21.08
2017-12-03T21:21:13.458Z,21.05
2017-12-03T21:23:40.906Z,18.45
2017-12-03T21:26:08.362Z,16.75
2017-12-03T21:28:35.809Z,21.75
2017-12-03T21:31:03.290Z,18.10
2017-12-03T21:33:30.758Z,20.80
2017-12-03T21:35:58.200Z,13.20
2017-12-03T21:38:25.653Z,12.98
2017-12-03T21:40:53.112Z,15.20
2017-12-03T21:43:20.565Z,18.08
2017-12-03T21:45:48.018Z,17.10
2017-12-03T21:48:15.478Z,14.63
2017-12-03T21:50:42.934Z,14.95
2017-12-03T21:53:10.393Z,15.60
2017-12-03T21:55:37.837Z,17.45
2017-12-03T21:58:05.296Z,15.32
2017-12-03T22:02:35.857Z,16.27
2017-12-03T22:05:03.301Z,18.85
2017-12-03T22:07:30.796Z,17.15
2017-12-03T22:09:58.209Z,17.15
2017-12-03T22:12:25.660Z,19.70
2017-12-03T22:14:53.109Z,15.48
2017-12-03T22:17:20.569Z,16.48
2017-12-03T22:19:48.016Z,18.17
2017-12-03T22:22:15.483Z,16.35
2017-12-03T22:24:42.969Z,19.98
2017-12-03T22:27:10.418Z,13.07
2017-12-03T22:29:37.886Z,15.57
2017-12-03T22:32:05.341Z,20.25
2017-12-03T22:34:32.799Z,20.73
2017-12-03T22:37:00.250Z,21.70
2017-12-03T22:39:27.708Z,21.40
2017-12-03T22:41:55.161Z,20.23
2017-12-03T22:44:22.609Z,20.98
2017-12-03T22:46:50.062Z,23.98
2017-12-03T22:49:17.526Z,27.60
2017-12-03T22:51:45.090Z,27.62
2017-12-03T22:54:12.543Z,19.73
2017-12-03T22:56:39.998Z,18.77
2017-12-03T22:59:07.466Z,24.92
2017-12-03T23:01:34.910Z,20.65
2017-12-03T23:04:02.363Z,19.98
2017-12-03T23:06:29.809Z,20.33
2017-12-03T23:08:57.270Z,16.52
2017-12-03T23:11:24.713Z,17.73
2017-12-03T23:13:52.177Z,21.45
2017-12-03T23:16:19.723Z,14.95
2017-12-03T23:18:47.166Z,18.90
2017-12-03T23:21:14.618Z,20.12
2017-12-03T23:23:42.832Z,16.33
2017-12-03T23:26:10.280Z,21.85
2017-12-03T23:28:37.736Z,15.18
2017-12-03T23:31:05.181Z,16.75
2017-12-03T23:33:32.653Z,19.98
2017-12-03T23:36:00.113Z,16.65
2017-12-03T23:38:27.553Z,23.90
2017-12-03T23:40:55.010Z,15.57
2017-12-03T23:43:22.461Z,19.20
2017-12-03T23:45:49.916Z,11.02
2017-12-03T23:48:17.361Z,15.57
2017-12-03T23:50:44.831Z,13.18
2017-12-03T23:53:13.025Z,12.20
2017-12-03T23:55:40.606Z,13.40
2017-12-03T23:58:08.061Z,13.27
